createdAt,value
2016-05-01T00:00:04.400Z,4.48
2016-05-01T00:00:57.934Z,4.38
2016-05-01T00:01:45.062Z,4.48
2016-05-01T00:03:04.439Z,4.56
2016-05-01T00:03:51.505Z,4.45
2016-05-01T00:04:45.866Z,4.43
2016-05-01T00:05:45.276Z,4.38
2016-05-01T00:06:46.029Z,4.48
2016-05-01T00:07:45.312Z,4.46
2016-05-01T00:08:58.066Z,4.46
2016-05-01T00:09:58.083Z,4.48
2016-05-01T00:11:04.555Z,4.38
2016-05-01T00:11:45.417Z,4.43
2016-05-01T00:12:45.216Z,4.39
2016-05-01T00:13:45.391Z,4.39
2016-05-01T00:14:58.128Z,4.4
2016-05-01T00:15:45.412Z,4.46
2016-05-01T00:16:45.415Z,4.4
2016-05-01T00:17:45.449Z,4.43
2016-05-01T00:18:58.201Z,4.32
2016-05-01T00:19:45.485Z,4.3
2016-05-01T00:21:04.551Z,4.2
2016-05-01T00:21:45.521Z,4.21
2016-05-01T00:23:11.181Z,4.25
2016-05-01T00:23:46.136Z,4.31
2016-05-01T00:25:16.811Z,4.16
2016-05-01T00:25:58.314Z,4.14
2016-05-01T00:26:45.582Z,4.25
2016-05-01T00:28:11.272Z,4.06
2016-05-01T00:28:55.244Z,4.12
2016-05-01T00:29:55.247Z,4.14
2016-05-01T00:30:56.718Z,4.07
2016-05-01T00:32:02.159Z,4.27
2016-05-01T00:33:07.895Z,4.21
2016-05-01T00:33:55.320Z,4.28
2016-05-01T00:35:14.604Z,4.18
2016-05-01T00:35:55.200Z,4.12
2016-05-01T00:37:21.002Z,4.06
2016-05-01T00:37:55.971Z,4.04
2016-05-01T00:39:26.508Z,4
2016-05-01T00:40:04.680Z,4.04
2016-05-01T00:41:30.529Z,4.1
2016-05-01T00:42:04.872Z,4.1
2016-05-01T00:43:36.160Z,4.02
2016-05-01T00:44:14.331Z,3.95
2016-05-01T00:45:14.240Z,4
2016-05-01T00:46:27.245Z,4.03
2016-05-01T00:47:14.604Z,3.99
2016-05-01T00:48:33.751Z,4.02
2016-05-01T00:49:27.237Z,4.02
2016-05-01T00:50:14.893Z,4.06
2016-05-01T00:51:14.584Z,4
2016-05-01T00:52:15.243Z,3.95
2016-05-01T00:53:14.621Z,3.91
2016-05-01T00:54:21.485Z,3.92
2016-05-01T00:55:14.657Z,3.95
2016-05-01T00:56:40.335Z,3.91
2016-05-01T00:57:15.241Z,4.03
2016-05-01T00:58:45.981Z,3.77
2016-05-01T00:59:14.684Z,3.77
2016-05-01T01:00:14.390Z,3.89
2016-05-01T01:01:27.473Z,3.76
2016-05-01T01:02:14.739Z,3.76
2016-05-01T01:03:14.757Z,3.7
2016-05-01T01:04:14.791Z,3.63
2016-05-01T01:05:14.809Z,3.63
2016-05-01T01:06:14.811Z,3.55
2016-05-01T01:07:14.814Z,3.59
2016-05-01T01:08:27.570Z,3.43
2016-05-01T01:09:14.898Z,3.4
2016-05-01T01:10:15.057Z,3.34
2016-05-01T01:11:14.763Z,3.37
2016-05-01T01:12:14.891Z,3.24
2016-05-01T01:13:14.893Z,3.26
2016-05-01T01:14:14.924Z,3.22
2016-05-01T01:15:21.036Z,3.26
2016-05-01T01:16:14.945Z,3.15
2016-05-01T01:17:14.728Z,3.13
2016-05-01T01:18:21.262Z,3.21
2016-05-01T01:19:15.000Z,3.16
2016-05-01T01:20:27.614Z,3.19
2016-05-01T01:21:27.758Z,3.16
2016-05-01T01:22:15.226Z,3.15
2016-05-01T01:23:40.716Z,3
2016-05-01T01:24:15.138Z,3.12
2016-05-01T01:26:27.818Z,2.98
2016-05-01T01:27:15.099Z,3.03
2016-05-01T01:28:34.291Z,2.93
2016-05-01T01:29:15.135Z,2.98
2016-05-01T01:30:15.155Z,2.95
2016-05-01T01:31:15.157Z,2.95
2016-05-01T01:32:21.440Z,2.95
2016-05-01T01:33:21.443Z,2.93
2016-05-01T01:34:15.180Z,2.82
2016-05-01T01:35:34.405Z,2.87
2016-05-01T01:36:18.061Z,2.88
2016-05-01T01:37:37.425Z,2.83
2016-05-01T01:38:24.397Z,2.91
2016-05-01T01:39:21.413Z,2.82
2016-05-01T01:40:21.384Z,2.75
2016-05-01T01:41:34.155Z,2.77
2016-05-01T01:42:21.437Z,2.75
2016-05-01T01:43:21.439Z,2.77
2016-05-01T01:44:21.473Z,2.87
2016-05-01T01:45:47.150Z,2.8
2016-05-01T01:46:22.903Z,2.76
2016-05-01T01:47:21.497Z,2.76
2016-05-01T01:48:34.330Z,2.7
2016-05-01T01:49:21.533Z,2.7
2016-05-01T01:50:22.036Z,2.73
2016-05-01T01:51:34.291Z,2.69
2016-05-01T01:52:34.309Z,2.68
2016-05-01T01:53:34.327Z,2.69
2016-05-01T01:54:40.784Z,2.59
2016-05-01T01:55:47.147Z,2.61
2016-05-01T01:56:47.289Z,2.58
2016-05-01T01:57:21.617Z,2.47
2016-05-01T01:58:53.544Z,2.52
2016-05-01T01:59:31.719Z,2.52
2016-05-01T02:00:31.738Z,2.55
2016-05-01T02:01:44.630Z,2.52
2016-05-01T02:02:31.946Z,2.54
2016-05-01T02:03:31.777Z,2.54
2016-05-01T02:04:32.576Z,2.61
2016-05-01T02:05:31.798Z,2.64
2016-05-01T02:06:31.971Z,2.62
2016-05-01T02:07:38.240Z,2.58
2016-05-01T02:08:31.993Z,2.52
2016-05-01T02:09:32.043Z,2.75
2016-05-01T02:10:32.061Z,2.76
2016-05-01T02:11:32.033Z,2.8
2016-05-01T02:12:38.300Z,2.64
2016-05-01T02:13:32.069Z,2.68
2016-05-01T02:14:32.104Z,2.82
2016-05-01T02:15:32.106Z,2.88
2016-05-01T02:16:32.093Z,2.79
2016-05-01T02:17:31.971Z,2.87
2016-05-01T02:18:31.958Z,2.82
2016-05-01T02:19:32.211Z,2.91
2016-05-01T02:20:32.354Z,2.94
2016-05-01T02:21:38.294Z,2.93
2016-05-01T02:22:32.390Z,2.91
2016-05-01T02:23:32.268Z,2.91
2016-05-01T02:24:38.552Z,2.98
2016-05-01T02:25:32.070Z,2.98
2016-05-01T02:26:51.447Z,3.05
2016-05-01T02:27:38.528Z,3.09
2016-05-01T02:28:31.938Z,3.08
2016-05-01T02:29:45.018Z,3
2016-05-01T02:30:38.552Z,2.9
2016-05-01T02:31:31.993Z,2.93
2016-05-01T02:32:32.152Z,2.9
2016-05-01T02:33:32.326Z,2.93
2016-05-01T02:34:32.422Z,2.87
2016-05-01T02:35:32.410Z,2.9
2016-05-01T02:36:33.834Z,2.97
2016-05-01T02:37:33.805Z,2.93
2016-05-01T02:38:32.402Z,2.83
2016-05-01T02:39:32.405Z,2.82
2016-05-01T02:40:32.313Z,2.76
2016-05-01T02:41:32.457Z,2.69
2016-05-01T02:42:32.304Z,2.73
2016-05-01T02:43:38.728Z,2.8
2016-05-01T02:44:32.465Z,2.85
2016-05-01T02:45:45.217Z,2.83
2016-05-01T02:46:32.501Z,2.82
2016-05-01T02:47:51.582Z,2.87
2016-05-01T02:48:33.928Z,2.88
2016-05-01T02:49:57.931Z,2.8
2016-05-01T02:50:32.262Z,2.91
2016-05-01T02:51:32.265Z,2.88
2016-05-01T02:52:32.596Z,3.01
2016-05-01T02:53:32.598Z,3.06
2016-05-01T02:54:32.601Z,3.24
2016-05-01T02:55:34.041Z,3.19
2016-05-01T02:56:32.639Z,3.13
2016-05-01T02:57:45.391Z,3.18
2016-05-01T02:58:45.394Z,3.05
2016-05-01T02:59:32.677Z,3.06
2016-05-01T03:00:32.539Z,3.15
2016-05-01T03:01:32.699Z,3.11
2016-05-01T03:02:32.701Z,3.09
2016-05-01T03:03:32.735Z,3.22
2016-05-01T03:04:32.752Z,3.16
2016-05-01T03:05:32.615Z,3.22
2016-05-01T03:06:32.774Z,3.27
2016-05-01T03:07:32.776Z,3.19
2016-05-01T03:08:32.607Z,3.22
2016-05-01T03:09:45.391Z,3.12
2016-05-01T03:10:32.832Z,3.11
2016-05-01T03:11:52.054Z,3.05
2016-05-01T03:12:45.416Z,3.19
2016-05-01T03:13:32.698Z,3.12
2016-05-01T03:14:32.890Z,3.15
2016-05-01T03:15:32.892Z,3.19
2016-05-01T03:16:32.895Z,3.24
2016-05-01T03:17:32.913Z,3.21
2016-05-01T03:18:32.947Z,3.12
2016-05-01T03:19:33.575Z,3.13
2016-05-01T03:20:40.031Z,3.12
2016-05-01T03:21:45.673Z,3.05
2016-05-01T03:22:52.036Z,2.98
2016-05-01T03:23:32.992Z,3.03
2016-05-01T03:25:04.275Z,2.97
2016-05-01T03:25:32.700Z,3.03
2016-05-01T03:26:33.031Z,3.11
2016-05-01T03:27:33.081Z,3.15
2016-05-01T03:28:39.333Z,3.19
2016-05-01T03:29:33.055Z,3.19
2016-05-01T03:30:52.292Z,3.12
2016-05-01T03:31:45.842Z,3.22
2016-05-01T03:32:33.110Z,3.13
2016-05-01T03:33:58.800Z,3.29
2016-05-01T03:34:42.741Z,3.21
2016-05-01T03:35:43.602Z,3.24
2016-05-01T03:36:42.777Z,3.22
2016-05-01T03:37:42.639Z,3.21
2016-05-01T03:38:42.813Z,3.21
2016-05-01T03:39:42.816Z,3.16
2016-05-01T03:40:42.897Z,3.19
2016-05-01T03:41:42.852Z,3.24
2016-05-01T03:42:55.590Z,3.15
2016-05-01T03:43:42.858Z,3.16
2016-05-01T03:44:42.876Z,3.15
2016-05-01T03:45:42.910Z,3.15
2016-05-01T03:46:42.913Z,3.03
2016-05-01T03:47:42.915Z,3.03
2016-05-01T03:48:43.543Z,3.13
2016-05-01T03:49:42.811Z,3.12
2016-05-01T03:50:43.189Z,3.18
2016-05-01T03:51:42.895Z,3
2016-05-01T03:52:42.992Z,3.03
2016-05-01T03:53:49.885Z,2.97
2016-05-01T03:54:43.013Z,2.91
2016-05-01T03:55:43.140Z,2.9
2016-05-01T03:56:43.034Z,2.88
2016-05-01T03:57:43.068Z,2.91
2016-05-01T03:58:43.664Z,2.83
2016-05-01T03:59:42.917Z,2.87
2016-05-01T04:00:43.091Z,2.98
2016-05-01T04:01:43.110Z,3
2016-05-01T04:02:42.956Z,3.06
2016-05-01T04:03:43.130Z,2.97
2016-05-01T04:04:57.024Z,3.05
2016-05-01T04:05:45.073Z,3.05
2016-05-01T04:07:14.466Z,3.16
2016-05-01T04:07:55.922Z,3.13
2016-05-01T04:08:43.254Z,3.19
2016-05-01T04:09:52.662Z,3.22
2016-05-01T04:10:52.571Z,3.11
2016-05-01T04:11:58.871Z,3.15
2016-05-01T04:14:09.189Z,3.22
2016-05-01T04:15:09.129Z,3.26
2016-05-01T04:16:34.821Z,3.33
2016-05-01T04:17:21.868Z,3.36
2016-05-01T04:18:09.153Z,3.36
2016-05-01T04:19:21.593Z,3.43
2016-05-01T04:20:22.064Z,3.46
2016-05-01T04:21:28.414Z,3.49
2016-05-01T04:22:09.117Z,3.5
2016-05-01T04:23:29.137Z,3.45
2016-05-01T04:24:22.075Z,3.45
2016-05-01T04:25:09.264Z,3.53
2016-05-01T04:26:28.458Z,3.55
2016-05-01T04:27:09.348Z,3.5
2016-05-01T04:28:09.289Z,3.64
2016-05-01T04:29:40.482Z,3.78
2016-05-01T04:30:18.826Z,3.74
2016-05-01T04:31:44.519Z,3.82
2016-05-01T04:32:50.147Z,3.99
2016-05-01T04:33:53.305Z,4
2016-05-01T04:34:53.386Z,4.03
2016-05-01T04:36:05.405Z,4.14
2016-05-01T04:36:56.422Z,4.13
2016-05-01T04:38:09.457Z,4.13
2016-05-01T04:39:56.399Z,4.28
2016-05-01T04:40:56.449Z,4.27
2016-05-01T04:42:21.982Z,4.38
2016-05-01T04:43:31.769Z,4.36
2016-05-01T04:44:05.957Z,4.3
2016-05-01T04:45:06.162Z,4.46
2016-05-01T04:46:06.134Z,4.46
2016-05-01T04:47:07.418Z,4.42
2016-05-01T04:48:06.155Z,4.56
2016-05-01T04:49:25.440Z,4.56
2016-05-01T04:50:06.349Z,4.58
2016-05-01T04:51:31.885Z,4.67
2016-05-01T04:52:15.666Z,4.7
2016-05-01T04:53:15.825Z,4.76
2016-05-01T04:54:22.125Z,4.75
2016-05-01T04:55:15.862Z,4.76
2016-05-01T04:56:23.411Z,4.64
2016-05-01T04:57:28.478Z,4.74
2016-05-01T04:58:41.575Z,4.78
2016-05-01T04:59:34.969Z,4.87
2016-05-01T05:00:15.781Z,4.92
2016-05-01T05:01:41.317Z,4.94
2016-05-01T05:02:22.317Z,4.98
2016-05-01T05:03:47.105Z,5.05
2016-05-01T05:04:37.358Z,5.12
2016-05-01T05:05:30.969Z,5.13
2016-05-01T05:06:43.675Z,5.19
2016-05-01T05:07:50.303Z,5.28
2016-05-01T05:08:43.681Z,5.22
2016-05-01T05:09:31.136Z,5.23
2016-05-01T05:10:43.905Z,5.4
2016-05-01T05:11:31.001Z,5.46
2016-05-01T05:12:43.926Z,5.44
2016-05-01T05:13:31.210Z,5.59
2016-05-01T05:14:31.227Z,5.64
2016-05-01T05:15:31.215Z,5.8
2016-05-01T05:16:43.827Z,5.74
2016-05-01T05:17:44.001Z,5.91
2016-05-01T05:18:31.285Z,5.98
2016-05-01T05:20:29.462Z,6.07
2016-05-01T05:21:01.509Z,6.06
2016-05-01T05:21:42.200Z,6.1
2016-05-01T05:22:42.437Z,6.17
2016-05-01T05:23:52.206Z,6.25
2016-05-01T05:24:51.943Z,6.28
2016-05-01T05:25:52.756Z,6.26
2016-05-01T05:26:52.135Z,6.22
2016-05-01T05:28:04.904Z,6.26
2016-05-01T05:29:23.453Z,6.36
2016-05-01T05:30:07.503Z,6.31
2016-05-01T05:31:33.102Z,6.17
2016-05-01T05:32:17.023Z,6.28
2016-05-01T05:33:29.794Z,6.31
2016-05-01T05:35:27.281Z,6.32
2016-05-01T05:36:26.394Z,6.29
2016-05-01T05:37:36.040Z,6.36
2016-05-01T05:38:36.042Z,6.28
2016-05-01T05:39:36.123Z,6.22
2016-05-01T05:41:51.316Z,6.38
2016-05-01T05:42:51.162Z,6.39
2016-05-01T05:44:03.931Z,6.46
2016-05-01T05:44:51.340Z,6.65
2016-05-01T05:46:10.577Z,6.74
2016-05-01T05:47:07.268Z,6.64
2016-05-01T05:47:54.660Z,6.75
2016-05-01T05:49:20.335Z,6.83
2016-05-01T05:50:04.572Z,6.92
2016-05-01T05:51:30.046Z,6.87
2016-05-01T05:52:04.171Z,6.89
2016-05-01T05:54:06.926Z,6.96
2016-05-01T05:54:45.304Z,7.04
2016-05-01T05:55:19.710Z,7.07
2016-05-01T05:56:50.919Z,7.04
2016-05-01T05:57:35.359Z,7.08
2016-05-01T05:58:53.924Z,7.05
2016-05-01T05:59:41.848Z,7.13
2016-05-01T06:00:51.476Z,7.07
2016-05-01T06:01:35.666Z,7.03
2016-05-01T06:02:35.278Z,7.1
2016-05-01T06:03:35.609Z,7.1
2016-05-01T06:04:35.659Z,7
2016-05-01T06:05:35.631Z,6.93
2016-05-01T06:06:35.711Z,6.92
2016-05-01T06:07:41.916Z,6.86
2016-05-01T06:08:35.842Z,6.87
2016-05-01T06:09:35.689Z,6.86
2016-05-01T06:10:35.691Z,6.93
2016-05-01T06:11:35.677Z,6.93
2016-05-01T06:12:36.137Z,7
2016-05-01T06:13:35.762Z,6.97
2016-05-01T06:14:35.515Z,7.05
2016-05-01T06:15:35.705Z,7.19
2016-05-01T06:16:48.505Z,7.19
2016-05-01T06:17:35.679Z,7.21
2016-05-01T06:18:35.682Z,7.28
2016-05-01T06:19:35.903Z,7.14
2016-05-01T06:20:35.875Z,7.13
2016-05-01T06:21:35.752Z,7.28
2016-05-01T06:22:35.849Z,7.33
2016-05-01T06:23:35.618Z,7.4
2016-05-01T06:24:35.824Z,7.4
2016-05-01T06:25:35.810Z,7.4
2016-05-01T06:26:35.860Z,7.39
2016-05-01T06:27:35.846Z,7.41
2016-05-01T06:28:35.849Z,7.36
2016-05-01T06:29:35.884Z,7.33
2016-05-01T06:30:35.729Z,7.36
2016-05-01T06:31:35.905Z,7.39
2016-05-01T06:32:35.923Z,7.39
2016-05-01T06:33:35.925Z,7.44
2016-05-01T06:34:35.773Z,7.44
2016-05-01T06:35:36.181Z,7.51
2016-05-01T06:36:35.840Z,7.72
2016-05-01T06:37:36.046Z,7.77
2016-05-01T06:38:36.017Z,7.72
2016-05-01T06:39:36.098Z,7.69
2016-05-01T06:40:36.054Z,7.84
2016-05-01T06:41:36.073Z,7.7
2016-05-01T06:42:48.825Z,7.88
2016-05-01T06:43:35.984Z,7.95
2016-05-01T06:44:36.111Z,8.16
2016-05-01T06:45:36.161Z,8.39
2016-05-01T06:46:36.164Z,8.45
2016-05-01T06:47:36.166Z,8.92
2016-05-01T06:48:36.325Z,8.72
2016-05-01T06:49:36.438Z,8.63
2016-05-01T06:50:36.406Z,8.54
2016-05-01T06:51:36.325Z,8.79
2016-05-01T06:52:37.809Z,9.08
2016-05-01T06:53:36.135Z,9.27
2016-05-01T06:54:36.508Z,9.26
2016-05-01T06:55:36.536Z,9.59
2016-05-01T06:56:36.570Z,9.72
2016-05-01T06:57:36.619Z,9.77
2016-05-01T06:58:36.637Z,9.88
2016-05-01T06:59:36.671Z,9.88
2016-05-01T07:00:42.963Z,9.56
2016-05-01T07:01:36.722Z,9.59
2016-05-01T07:02:36.744Z,9.8
2016-05-01T07:03:36.941Z,9.9
2016-05-01T07:04:36.636Z,9.82
2016-05-01T07:05:36.924Z,9.67
2016-05-01T07:06:36.849Z,9.42
2016-05-01T07:07:36.901Z,9.12
2016-05-01T07:08:36.875Z,9.16
2016-05-01T07:09:36.738Z,9.4
2016-05-01T07:10:49.665Z,9.56
2016-05-01T07:11:36.933Z,9.39
2016-05-01T07:12:36.938Z,9.3
2016-05-01T07:13:36.956Z,9.09
2016-05-01T07:14:36.975Z,8.9
2016-05-01T07:15:37.041Z,8.71
2016-05-01T07:16:37.060Z,8.69
2016-05-01T07:17:37.062Z,8.9
2016-05-01T07:18:37.207Z,8.96
2016-05-01T07:19:37.084Z,8.99
2016-05-01T07:20:37.260Z,9.18
2016-05-01T07:21:37.137Z,9.27
2016-05-01T07:22:37.187Z,9.42
2016-05-01T07:23:37.174Z,9.73
2016-05-01T07:24:37.192Z,9.74
2016-05-01T07:25:37.038Z,9.72
2016-05-01T07:26:37.837Z,9.59
2016-05-01T07:27:37.278Z,9.74
2016-05-01T07:28:37.109Z,9.58
2016-05-01T07:29:37.284Z,9.58
2016-05-01T07:30:37.301Z,9.81
2016-05-01T07:31:37.336Z,9.69
2016-05-01T07:32:37.354Z,9.62
2016-05-01T07:33:37.451Z,9.73
2016-05-01T07:34:37.391Z,9.8
2016-05-01T07:35:37.253Z,9.81
2016-05-01T07:36:37.442Z,9.72
2016-05-01T07:37:37.275Z,9.9
2016-05-01T07:38:37.136Z,10.1
2016-05-01T07:39:37.450Z,10.15
2016-05-01T07:40:37.485Z,10.1
2016-05-01T07:41:37.519Z,10.05
2016-05-01T07:42:40.850Z,10.12
2016-05-01T07:43:37.383Z,10.06
2016-05-01T07:44:37.449Z,9.92
2016-05-01T07:45:37.592Z,9.85
2016-05-01T07:46:37.658Z,9.92
2016-05-01T07:47:37.629Z,10.03
2016-05-01T07:48:37.647Z,10.09
2016-05-01T07:49:37.665Z,10.06
2016-05-01T07:50:37.668Z,9.91
2016-05-01T07:51:37.562Z,9.9
2016-05-01T07:52:37.735Z,9.95
2016-05-01T07:53:37.738Z,9.94
2016-05-01T07:54:37.773Z,9.99
2016-05-01T07:55:37.791Z,10.09
2016-05-01T07:56:37.778Z,10.28
2016-05-01T07:57:37.859Z,10.38
2016-05-01T07:58:37.674Z,10.28
2016-05-01T07:59:38.240Z,10.39
2016-05-01T08:00:37.882Z,10.3
2016-05-01T08:01:37.729Z,10.33
2016-05-01T08:02:37.919Z,10.67
2016-05-01T08:03:37.781Z,10.71
2016-05-01T08:04:37.939Z,10.75
2016-05-01T08:05:37.693Z,10.76
2016-05-01T08:06:38.008Z,10.79
2016-05-01T08:07:38.010Z,10.71
2016-05-01T08:08:38.014Z,10.77
2016-05-01T08:09:38.048Z,10.83
2016-05-01T08:10:38.066Z,10.82
2016-05-01T08:11:37.769Z,10.69
2016-05-01T08:12:38.196Z,10.71
2016-05-01T08:13:38.118Z,10.72
2016-05-01T08:14:38.152Z,10.72
2016-05-01T08:15:38.169Z,10.76
2016-05-01T08:16:38.188Z,10.84
2016-05-01T08:17:38.222Z,10.83
2016-05-01T08:18:38.069Z,10.89
2016-05-01T08:19:38.087Z,10.71
2016-05-01T08:20:38.262Z,10.79
2016-05-01T08:21:38.155Z,10.72
2016-05-01T08:22:38.299Z,10.67
2016-05-01T08:23:38.302Z,10.68
2016-05-01T08:24:38.319Z,10.72
2016-05-01T08:25:38.353Z,10.8
2016-05-01T08:26:51.109Z,10.67
2016-05-01T08:27:38.234Z,10.75
2016-05-01T08:28:38.439Z,10.77
2016-05-01T08:29:38.287Z,10.82
2016-05-01T08:30:38.305Z,10.75
2016-05-01T08:31:38.307Z,11.02
2016-05-01T08:32:38.200Z,11.18
2016-05-01T08:33:38.360Z,11.49
2016-05-01T08:34:38.721Z,11.55
2016-05-01T08:35:38.974Z,11.77
2016-05-01T08:36:38.556Z,11.65
2016-05-01T08:37:38.573Z,11.67
2016-05-01T08:38:38.623Z,11.73
2016-05-01T08:39:38.642Z,11.74
2016-05-01T08:40:38.675Z,11.71
2016-05-01T08:41:38.661Z,11.74
2016-05-01T08:42:38.712Z,11.89
2016-05-01T08:43:38.714Z,12.08
2016-05-01T08:44:46.438Z,12.12
2016-05-01T08:45:45.035Z,12.26
2016-05-01T08:46:57.991Z,12.48
2016-05-01T08:47:54.744Z,12.62
2016-05-01T08:49:01.308Z,12.84
2016-05-01T08:49:42.074Z,12.98
2016-05-01T08:51:07.626Z,12.75
2016-05-01T08:51:51.598Z,12.91
2016-05-01T08:52:51.616Z,12.91
2016-05-01T08:53:51.478Z,12.87
2016-05-01T08:54:51.685Z,12.93
2016-05-01T08:55:51.671Z,12.84
2016-05-01T08:56:51.704Z,12.51
2016-05-01T08:57:51.740Z,12.25
2016-05-01T08:58:51.851Z,11.95
2016-05-01T09:00:04.510Z,12.25
2016-05-01T09:01:04.544Z,12.33
2016-05-01T09:02:10.859Z,12.5
2016-05-01T09:02:54.814Z,12.57
2016-05-01T09:05:04.414Z,13.01
2016-05-01T09:06:04.307Z,12.87
2016-05-01T09:07:10.732Z,13.06
2016-05-01T09:08:04.359Z,12.72
2016-05-01T09:09:23.722Z,12.53
2016-05-01T09:10:04.552Z,12.35
2016-05-01T09:11:30.227Z,12.07
2016-05-01T09:12:04.792Z,12.17
2016-05-01T09:13:35.905Z,12.18
2016-05-01T09:14:17.391Z,12.33
2016-05-01T09:15:04.488Z,12.39
2016-05-01T09:16:04.678Z,12.81
2016-05-01T09:17:04.697Z,12.48
2016-05-01T09:18:04.683Z,12.65
2016-05-01T09:19:04.733Z,12.58
2016-05-01T09:20:11.033Z,12.7
2016-05-01T09:21:05.411Z,12.23
2016-05-01T09:22:04.647Z,12.53
2016-05-01T09:23:04.826Z,12.65
2016-05-01T09:24:04.829Z,12.5
2016-05-01T09:25:04.785Z,12.28
2016-05-01T09:26:10.990Z,12.61
2016-05-01T09:27:04.963Z,12.72
2016-05-01T09:28:04.762Z,12.5
2016-05-01T09:29:17.718Z,12.26
2016-05-01T09:30:05.065Z,12.48
2016-05-01T09:31:04.973Z,12.87
2016-05-01T09:32:04.866Z,13.01
2016-05-01T09:33:05.026Z,13.2
2016-05-01T09:34:04.919Z,13.08
2016-05-01T09:35:05.078Z,12.62
2016-05-01T09:36:04.940Z,12.87
2016-05-01T09:37:04.959Z,12.81
2016-05-01T09:38:05.133Z,12.8
2016-05-01T09:39:05.183Z,12.47
2016-05-01T09:40:05.216Z,12.62
2016-05-01T09:41:05.203Z,12.4
2016-05-01T09:42:05.221Z,12.83
2016-05-01T09:43:05.256Z,12.78
2016-05-01T09:44:05.290Z,13.03
2016-05-01T09:45:05.136Z,12.9
2016-05-01T09:46:05.327Z,13.06
2016-05-01T09:47:05.188Z,12.95
2016-05-01T09:48:05.363Z,12.94
2016-05-01T09:49:05.241Z,13.08
2016-05-01T09:50:05.399Z,13.2
2016-05-01T09:51:05.621Z,13.09
2016-05-01T09:52:05.296Z,13.08
2016-05-01T09:53:05.517Z,13.09
2016-05-01T09:54:05.504Z,13.21
2016-05-01T09:55:05.521Z,13.27
2016-05-01T09:56:06.088Z,13.47
2016-05-01T09:57:05.527Z,13.42
2016-05-01T09:58:05.576Z,13.39
2016-05-01T09:59:05.455Z,13.17
2016-05-01T10:00:05.474Z,13.09
2016-05-01T10:01:05.648Z,13.26
2016-05-01T10:02:05.682Z,13.37
2016-05-01T10:03:05.684Z,13.42
2016-05-01T10:04:05.562Z,13.27
2016-05-01T10:05:05.753Z,13.33
2016-05-01T10:06:05.786Z,13.36
2016-05-01T10:07:05.774Z,13.19
2016-05-01T10:08:05.792Z,13.13
2016-05-01T10:09:05.825Z,13.28
2016-05-01T10:10:05.859Z,13.09
2016-05-01T10:11:05.862Z,12.98
2016-05-01T10:12:05.897Z,12.72
2016-05-01T10:13:18.664Z,12.87
2016-05-01T10:14:05.932Z,12.75
2016-05-01T10:15:05.826Z,12.95
2016-05-01T10:16:06.001Z,13.09
2016-05-01T10:17:05.988Z,13.37
2016-05-01T10:18:06.038Z,13.43
2016-05-01T10:19:06.040Z,13.31
2016-05-01T10:20:06.058Z,13.28
2016-05-01T10:21:05.952Z,13.4
2016-05-01T10:22:05.955Z,13.79
2016-05-01T10:23:06.130Z,13.71
2016-05-01T10:24:06.241Z,13.52
2016-05-01T10:25:18.900Z,13.62
2016-05-01T10:26:06.121Z,13.91
2016-05-01T10:27:06.218Z,13.97
2016-05-01T10:28:06.235Z,14.48
2016-05-01T10:29:06.285Z,14.26
2016-05-01T10:30:06.116Z,14.44
2016-05-01T10:31:06.307Z,14.44
2016-05-01T10:32:06.185Z,14.68
2016-05-01T10:33:18.937Z,14.87
2016-05-01T10:34:06.362Z,14.48
2016-05-01T10:35:06.286Z,14.38
2016-05-01T10:36:12.679Z,14.58
2016-05-01T10:37:06.306Z,15
2016-05-01T10:38:06.451Z,15.41
2016-05-01T10:39:06.485Z,14.94
2016-05-01T10:40:06.503Z,15.27
2016-05-01T10:41:06.567Z,15.73
2016-05-01T10:42:06.586Z,15.76
2016-05-01T10:43:06.572Z,15.76
2016-05-01T10:44:06.608Z,15.37
2016-05-01T10:45:06.470Z,15.02
2016-05-01T10:46:06.659Z,14.99
2016-05-01T10:47:06.694Z,14.31
2016-05-01T10:48:07.805Z,14.2
2016-05-01T10:49:06.714Z,13.97
2016-05-01T10:50:06.638Z,14.13
2016-05-01T10:51:06.860Z,13.98
2016-05-01T10:52:06.848Z,13.93
2016-05-01T10:53:07.335Z,14
2016-05-01T10:54:06.853Z,14.18
2016-05-01T10:55:06.855Z,14.16
2016-05-01T10:56:06.718Z,14.51
2016-05-01T10:57:06.923Z,14.51
2016-05-01T10:58:06.910Z,14.16
2016-05-01T10:59:06.929Z,14.3
2016-05-01T11:00:06.962Z,14.45
2016-05-01T11:01:07.059Z,14.48
2016-05-01T11:02:07.031Z,14.81
2016-05-01T11:03:07.034Z,14.23
2016-05-01T11:04:06.895Z,14.51
2016-05-01T11:05:07.070Z,14.68
2016-05-01T11:06:06.963Z,14.79
2016-05-01T11:07:06.981Z,14.7
2016-05-01T11:08:07.140Z,14.93
2016-05-01T11:09:07.175Z,15.05
2016-05-01T11:10:07.208Z,14.82
2016-05-01T11:11:07.195Z,14.56
2016-05-01T11:12:19.995Z,14.43
2016-05-01T11:13:07.107Z,14.52
2016-05-01T11:14:07.344Z,14.68
2016-05-01T11:15:07.316Z,14.87
2016-05-01T11:16:07.350Z,15.14
2016-05-01T11:17:07.383Z,15.54
2016-05-01T11:18:07.417Z,15.69
2016-05-01T11:19:07.420Z,15.45
2016-05-01T11:20:07.423Z,15.02
2016-05-01T11:21:07.566Z,14.56
2016-05-01T11:22:07.475Z,14.7
2016-05-01T11:23:07.541Z,14.37
2016-05-01T11:24:07.543Z,14.59
2016-05-01T11:25:08.171Z,14.44
2016-05-01T11:26:07.580Z,14.66
2016-05-01T11:27:07.676Z,14.66
2016-05-01T11:28:07.632Z,14.53
2016-05-01T11:29:07.682Z,14.26
2016-05-01T11:30:07.685Z,14.23
2016-05-01T11:31:08.280Z,14.44
2016-05-01T11:32:07.565Z,14.26
2016-05-01T11:33:07.739Z,14.59
2016-05-01T11:34:07.632Z,14.44
2016-05-01T11:35:20.401Z,14.22
2016-05-01T11:36:07.685Z,14.45
2016-05-01T11:37:39.125Z,14.7
2016-05-01T11:38:11.003Z,14.74
2016-05-01T11:40:20.679Z,14.81
2016-05-01T11:41:20.839Z,14.81
2016-05-01T11:42:33.451Z,14.67
2016-05-01T11:43:20.766Z,14.68
2016-05-01T11:44:20.597Z,14.67
2016-05-01T11:45:20.880Z,14.73
2016-05-01T11:46:20.836Z,14.61
2016-05-01T11:47:33.573Z,14.74
2016-05-01T11:48:20.889Z,14.79
2016-05-01T11:49:46.563Z,14.62
2016-05-01T11:50:33.661Z,14.3
2016-05-01T11:51:20.959Z,14.12
2016-05-01T11:52:20.977Z,14
2016-05-01T11:53:27.247Z,14.2
2016-05-01T11:54:21.014Z,14.41
2016-05-01T11:55:21.049Z,14.51
2016-05-01T11:56:21.035Z,14.26
2016-05-01T11:57:20.913Z,14.04
2016-05-01T11:58:21.228Z,13.82
2016-05-01T11:59:33.871Z,13.7
2016-05-01T12:00:21.155Z,13.65
2016-05-01T12:01:21.158Z,13.64
2016-05-01T12:02:21.160Z,13.37
2016-05-01T12:03:21.038Z,13.45
2016-05-01T12:04:21.229Z,13.4
2016-05-01T12:05:20.950Z,13.6
2016-05-01T12:06:21.249Z,13.76
2016-05-01T12:07:21.283Z,13.67
2016-05-01T12:08:21.318Z,13.78
2016-05-01T12:09:34.087Z,13.87
2016-05-01T12:10:21.214Z,13.73
2016-05-01T12:11:34.123Z,13.79
2016-05-01T12:12:21.390Z,13.65
2016-05-01T12:13:21.393Z,13.82
2016-05-01T12:14:21.443Z,13.98
2016-05-01T12:15:21.477Z,14
2016-05-01T12:16:21.480Z,14.16
2016-05-01T12:17:22.122Z,14.31
2016-05-01T12:18:27.797Z,14.19
2016-05-01T12:19:21.550Z,14.13
2016-05-01T12:20:22.272Z,14.13
2016-05-01T12:21:21.587Z,14.13
2016-05-01T12:22:34.184Z,14.12
2016-05-01T12:23:34.342Z,14.08
2016-05-01T12:24:40.922Z,14.23
2016-05-01T12:25:21.660Z,14.34
2016-05-01T12:26:21.678Z,14.44
2016-05-01T12:27:34.463Z,14.23
2016-05-01T12:28:28.012Z,14.28
2016-05-01T12:29:21.749Z,14.19
2016-05-01T12:30:21.798Z,14.18
2016-05-01T12:31:21.817Z,14.26
2016-05-01T12:32:21.851Z,14.36
2016-05-01T12:33:21.854Z,14.45
2016-05-01T12:34:21.700Z,14.45
2016-05-01T12:35:21.968Z,14.33
2016-05-01T12:36:21.909Z,14.25
2016-05-01T12:37:21.911Z,14.22
2016-05-01T12:38:34.679Z,13.98
2016-05-01T12:39:21.948Z,14.13
2016-05-01T12:40:21.826Z,14.33
2016-05-01T12:41:28.281Z,14.19
2016-05-01T12:42:22.456Z,14.13
2016-05-01T12:43:41.334Z,14.18
2016-05-01T12:44:22.289Z,14.26
2016-05-01T12:45:41.526Z,14.41
2016-05-01T12:46:25.575Z,14.36
2016-05-01T12:47:25.328Z,14.25
2016-05-01T12:48:26.770Z,14.28
2016-05-01T12:49:51.209Z,14.34
2016-05-01T12:51:00.855Z,14.23
2016-05-01T12:51:54.452Z,14.2
2016-05-01T12:52:35.217Z,13.97
2016-05-01T12:54:50.472Z,14.23
2016-05-01T12:55:50.522Z,14.36
2016-05-01T12:56:56.637Z,14.26
2016-05-01T12:57:50.231Z,14.51
2016-05-01T12:59:03.298Z,14.34
2016-05-01T12:59:50.579Z,14.43
2016-05-01T13:01:03.351Z,14.52
2016-05-01T13:01:51.226Z,14.55
2016-05-01T13:03:16.325Z,14.43
2016-05-01T13:04:00.140Z,14.56
2016-05-01T13:05:19.205Z,14.58
2016-05-01T13:06:06.396Z,14.56
2016-05-01T13:07:00.179Z,14.49
2016-05-01T13:08:12.963Z,14.48
2016-05-01T13:09:12.809Z,14.56
2016-05-01T13:10:00.296Z,14.52
2016-05-01T13:11:00.112Z,14.73
2016-05-01T13:12:00.537Z,14.78
2016-05-01T13:13:00.304Z,14.71
2016-05-01T13:14:06.604Z,14.68
2016-05-01T13:15:00.356Z,14.77
2016-05-01T13:16:19.625Z,14.86
2016-05-01T13:17:00.550Z,14.85
2016-05-01T13:18:26.100Z,14.85
2016-05-01T13:19:00.461Z,14.93
2016-05-01T13:20:31.745Z,14.68
2016-05-01T13:21:10.920Z,14.78
2016-05-01T13:22:35.469Z,14.81
2016-05-01T13:23:09.706Z,14.86
2016-05-01T13:24:41.022Z,14.7